Time;durP1;ratioP1;P1;durP2;ratioP2;P2;SDS_P1;SDS_P2;PMS_P1;PMS_P2;Temp;Humidity;BMP_temperature;BMP_pressure;BME280_temperature;BME280_humidity;BME280_pressure;Samples;Min_cycle;Max_cycle;Signal;HPM_P1;HPM_P2
2022/03/14 00:00:16;;;;;;;22.80;18.25;;;8.20;99.90;;;;;;5047798;28;20032;-70
2022/03/14 00:02:43;;;;;;;26.08;20.35;;;8.20;99.90;;;;;;5045377;28;20056;-70
2022/03/14 00:05:10;;;;;;;26.40;18.67;;;8.20;99.90;;;;;;5046468;28;20033;-70
2022/03/14 00:07:38;;;;;;;25.83;19.85;;;8.20;99.90;;;;;;5045949;28;20108;-70
2022/03/14 00:10:04;;;;;;;22.88;18.40;;;8.20;99.90;;;;;;5050216;28;20021;-70
2022/03/14 00:12:31;;;;;;;23.00;18.17;;;8.20;99.90;;;;;;5042345;28;20425;-70
2022/03/14 00:15:03;;;;;;;24.83;18.45;;;8.20;99.90;;;;;;5049920;28;20563;-70
2022/03/14 00:17:29;;;;;;;22.42;18.35;;;8.20;99.90;;;;;;5049227;28;20111;-70
2022/03/14 00:19:57;;;;;;;24.48;18.67;;;8.10;99.90;;;;;;5045604;28;20037;-70
2022/03/14 00:22:24;;;;;;;22.75;18.85;;;8.10;99.90;;;;;;5044553;28;20432;-70
2022/03/14 00:24:49;;;;;;;24.75;18.42;;;8.20;99.90;;;;;;5045239;28;20501;-70
2022/03/14 00:27:16;;;;;;;23.50;18.40;;;8.20;99.90;;;;;;5048520;28;20029;-70
2022/03/14 00:29:42;;;;;;;24.65;18.20;;;8.20;99.90;;;;;;5052793;28;20036;-70
2022/03/14 00:32:08;;;;;;;25.20;18.90;;;8.20;99.90;;;;;;5046723;28;20058;-70
2022/03/14 00:34:33;;;;;;;22.60;18.27;;;8.20;99.90;;;;;;5044141;28;20477;-70
2022/03/14 00:36:59;;;;;;;23.48;19.00;;;8.30;99.90;;;;;;5045032;28;20390;-70
2022/03/14 00:39:25;;;;;;;21.50;17.42;;;8.40;99.90;;;;;;5048132;28;20045;-70
2022/03/14 00:41:51;;;;;;;20.70;16.42;;;8.40;99.90;;;;;;5051347;28;20473;-70
2022/03/14 00:44:18;;;;;;;22.13;17.08;;;8.50;99.90;;;;;;5047797;28;20077;-70
2022/03/14 00:46:44;;;;;;;22.33;16.75;;;8.50;99.90;;;;;;5043777;28;20103;-70
2022/03/14 00:49:11;;;;;;;23.58;17.77;;;8.50;99.90;;;;;;5046383;28;20036;-70
2022/03/14 00:51:37;;;;;;;23.08;17.75;;;8.60;99.90;;;;;;5047058;28;20049;-70
2022/03/14 00:54:04;;;;;;;22.10;17.80;;;8.60;99.90;;;;;;5051271;28;20084;-70
2022/03/14 00:56:31;;;;;;;20.55;16.35;;;8.70;99.90;;;;;;5049575;28;20535;-70
2022/03/14 00:58:59;;;;;;;20.23;17.77;;;8.70;99.90;;;;;;5045673;28;20412;-71
2022/03/14 01:01:26;;;;;;;21.02;16.98;;;8.70;99.90;;;;;;5044083;28;20017;-71
2022/03/14 01:03:53;;;;;;;22.25;17.70;;;8.70;99.90;;;;;;5046339;28;20032;-70
2022/03/14 01:06:19;;;;;;;23.23;17.38;;;8.70;99.90;;;;;;5049934;28;20029;-70
2022/03/14 01:08:45;;;;;;;20.52;16.67;;;8.80;99.90;;;;;;5050778;28;20065;-70
2022/03/14 01:11:11;;;;;;;22.10;17.70;;;8.90;99.90;;;;;;5047195;28;20437;-70
2022/03/14 01:13:37;;;;;;;20.02;17.15;;;8.80;99.90;;;;;;5043586;28;20055;-70
2022/03/14 01:16:03;;;;;;;23.10;17.48;;;8.90;99.90;;;;;;5046378;28;20033;-70
2022/03/14 01:18:30;;;;;;;24.25;17.00;;;8.90;99.90;;;;;;5049165;28;20022;-70
2022/03/14 01:20:56;;;;;;;20.58;16.17;;;8.90;99.90;;;;;;5050656;28;20040;-70
2022/03/14 01:23:22;;;;;;;23.60;16.95;;;8.90;99.90;;;;;;5048266;28;20027;-70
2022/03/14 01:25:49;;;;;;;20.95;17.50;;;8.90;99.90;;;;;;5044181;28;20037;-70
2022/03/14 01:28:15;;;;;;;23.10;17.20;;;8.90;99.90;;;;;;5053751;28;20032;-70
2022/03/14 01:30:43;;;;;;;22.55;17.73;;;8.90;99.90;;;;;;5054703;28;20025;-69
2022/03/14 01:33:13;;;;;;;21.90;17.30;;;8.90;99.90;;;;;;5049580;28;20041;-69
2022/03/14 01:35:40;;;;;;;19.50;16.23;;;8.90;99.90;;;;;;5050681;28;20043;-69
2022/03/14 01:38:06;;;;;;;21.98;17.50;;;8.90;99.90;;;;;;5056491;28;20037;-69
2022/03/14 01:40:32;;;;;;;22.90;17.75;;;8.90;99.90;;;;;;5056061;28;20157;-69
2022/03/14 01:42:58;;;;;;;20.63;16.20;;;8.90;99.90;;;;;;5056731;28;20108;-69
2022/03/14 01:45:24;;;;;;;23.13;17.17;;;9.00;99.90;;;;;;5056019;28;20448;-69
2022/03/14 01:47:51;;;;;;;21.17;16.13;;;9.00;99.90;;;;;;5056488;28;20105;-70
2022/03/14 01:50:18;;;;;;;19.98;15.63;;;9.00;99.90;;;;;;5056413;28;20033;-70
2022/03/14 01:52:44;;;;;;;19.40;16.55;;;9.00;99.90;;;;;;5055719;28;20098;-70
2022/03/14 01:55:12;;;;;;;22.60;16.65;;;9.00;99.90;;;;;;5056167;28;21647;-70
2022/03/14 01:57:38;;;;;;;22.05;16.55;;;9.00;99.90;;;;;;5056285;28;20121;-70
2022/03/14 02:00:07;;;;;;;19.83;16.77;;;8.90;99.90;;;;;;5055383;28;20037;-70
2022/03/14 02:02:32;;;;;;;20.95;16.63;;;9.00;99.90;;;;;;5056426;28;20104;-70
2022/03/14 02:04:58;;;;;;;21.10;16.30;;;9.00;99.90;;;;;;5056057;28;20066;-70
2022/03/14 02:07:25;;;;;;;20.17;16.50;;;9.00;99.90;;;;;;5054177;28;20536;-69
2022/03/14 02:09:51;;;;;;;21.05;15.48;;;9.00;99.90;;;;;;5056083;28;20428;-70
2022/03/14 02:12:16;;;;;;;21.45;16.75;;;9.00;99.90;;;;;;5055642;28;20041;-70
2022/03/14 02:14:42;;;;;;;21.63;16.85;;;9.00;99.90;;;;;;5055474;28;20041;-69
2022/03/14 02:17:20;;;;;;;21.58;16.70;;;9.00;99.90;;;;;;5056316;28;20032;-70
2022/03/14 02:19:47;;;;;;;20.90;16.02;;;9.00;99.90;;;;;;5055794;28;20045;-69
2022/03/14 02:22:14;;;;;;;21.13;16.23;;;9.00;99.90;;;;;;5053943;28;20485;-70
2022/03/14 02:24:45;;;;;;;20.73;16.15;;;9.00;99.90;;;;;;5055933;28;20013;-70
2022/03/14 02:27:14;;;;;;;20.45;16.52;;;9.00;99.90;;;;;;5054221;28;20091;-70
2022/03/14 02:29:41;;;;;;;19.98;15.73;;;9.00;99.90;;;;;;5055691;28;20397;-70
2022/03/14 02:32:08;;;;;;;20.40;15.73;;;9.10;99.90;;;;;;5056320;28;20045;-70
2022/03/14 02:34:34;;;;;;;16.80;14.75;;;9.00;99.90;;;;;;5054534;28;20021;-69
2022/03/14 02:37:02;;;;;;;18.77;15.25;;;9.10;99.90;;;;;;5055751;28;20045;-69
2022/03/14 02:39:29;;;;;;;18.98;15.05;;;9.00;99.90;;;;;;5056373;28;20033;-69
2022/03/14 02:41:54;;;;;;;19.90;15.65;;;9.00;99.90;;;;;;5055251;28;20067;-69
2022/03/14 02:44:20;;;;;;;21.27;15.05;;;9.10;99.90;;;;;;5053986;28;20517;-70
2022/03/14 02:46:46;;;;;;;19.35;14.90;;;9.10;99.90;;;;;;5055328;28;20381;-70
2022/03/14 02:49:12;;;;;;;17.85;14.23;;;9.10;99.90;;;;;;5054817;28;20477;-70
2022/03/14 02:51:39;;;;;;;17.17;14.45;;;9.10;99.90;;;;;;5055251;28;20478;-69
2022/03/14 02:54:08;;;;;;;19.23;15.57;;;9.20;99.90;;;;;;5055119;28;20284;-70
2022/03/14 02:56:38;;;;;;;19.55;15.73;;;9.10;99.90;;;;;;5054957;28;20017;-69
2022/03/14 02:59:06;;;;;;;20.77;14.85;;;9.20;99.90;;;;;;5052612;28;20036;-70
2022/03/14 03:01:35;;;;;;;17.73;14.32;;;9.10;99.90;;;;;;5054665;28;20025;-70
2022/03/14 03:04:01;;;;;;;17.33;13.88;;;9.10;99.90;;;;;;5054405;28;20031;-69
2022/03/14 03:06:27;;;;;;;17.80;13.88;;;9.10;99.90;;;;;;5055179;28;20064;-70
2022/03/14 03:08:54;;;;;;;15.07;12.98;;;9.10;99.90;;;;;;5054814;28;20033;-70
2022/03/14 03:11:21;;;;;;;18.15;14.63;;;9.10;99.90;;;;;;5055566;28;20036;-69
2022/03/14 03:13:48;;;;;;;18.30;14.00;;;9.10;99.90;;;;;;5055245;28;20428;-70
2022/03/14 03:16:15;;;;;;;17.75;13.57;;;9.10;99.90;;;;;;5052230;28;20418;-70
2022/03/14 03:18:42;;;;;;;18.60;14.75;;;9.10;99.90;;;;;;5055984;28;20398;-70
2022/03/14 03:21:08;;;;;;;16.95;13.60;;;9.10;99.90;;;;;;5054652;28;20397;-70
2022/03/14 03:23:35;;;;;;;17.23;13.23;;;9.20;99.90;;;;;;5054906;28;20028;-70
2022/03/14 03:26:02;;;;;;;16.52;12.45;;;9.10;99.90;;;;;;5046829;28;20029;-69
2022/03/14 03:28:35;;;;;;;16.17;12.80;;;9.10;99.90;;;;;;5053444;28;20021;-70
2022/03/14 03:31:06;;;;;;;17.23;13.05;;;9.10;99.90;;;;;;5052970;28;20107;-70
2022/03/14 03:33:33;;;;;;;14.48;12.38;;;9.10;99.90;;;;;;5046989;28;20044;-70
2022/03/14 03:35:59;;;;;;;15.63;12.35;;;9.20;99.90;;;;;;5047613;28;20052;-69
2022/03/14 03:38:26;;;;;;;15.40;12.10;;;9.20;99.90;;;;;;5049870;28;20041;-70
2022/03/14 03:40:52;;;;;;;13.68;10.90;;;9.10;99.90;;;;;;5046102;28;20032;-69
2022/03/14 03:43:17;;;;;;;18.73;11.43;;;9.10;99.90;;;;;;5048022;28;20025;-69
2022/03/14 03:45:43;;;;;;;14.93;11.10;;;9.20;99.90;;;;;;5048103;28;20024;-69
2022/03/14 03:48:09;;;;;;;13.80;10.80;;;9.20;99.90;;;;;;5046350;28;20482;-69
2022/03/14 03:50:35;;;;;;;14.77;10.85;;;9.20;99.90;;;;;;5052468;28;20564;-70
2022/03/14 03:53:01;;;;;;;14.15;11.18;;;9.10;99.90;;;;;;5046157;28;20515;-69
2022/03/14 03:55:27;;;;;;;14.50;10.18;;;9.10;99.90;;;;;;5045833;28;20074;-70
2022/03/14 03:57:52;;;;;;;11.77;10.48;;;9.10;99.90;;;;;;5049841;28;20017;-69
2022/03/14 04:00:19;;;;;;;12.43;9.55;;;9.10;99.90;;;;;;5047282;28;20569;-69
2022/03/14 04:02:46;;;;;;;12.15;10.18;;;9.10;99.90;;;;;;5052677;28;20104;-70
2022/03/14 04:05:14;;;;;;;12.48;10.05;;;9.10;99.90;;;;;;5049290;28;20025;-70
2022/03/14 04:07:40;;;;;;;13.25;10.25;;;9.10;99.90;;;;;;5048862;28;20020;-69
2022/03/14 04:10:06;;;;;;;12.07;9.27;;;9.10;99.90;;;;;;5049252;28;20025;-70
2022/03/14 04:12:32;;;;;;;12.10;9.18;;;9.10;99.90;;;;;;5048973;28;20029;-70
2022/03/14 04:15:04;;;;;;;13.95;9.85;;;9.10;99.90;;;;;;5050515;28;20115;-70
2022/03/14 04:17:31;;;;;;;12.25;9.30;;;9.20;99.90;;;;;;5053073;28;20028;-70
2022/03/14 04:19:59;;;;;;;12.25;9.05;;;9.10;99.90;;;;;;5048821;28;20044;-70
2022/03/14 04:22:25;;;;;;;10.63;8.65;;;9.10;99.90;;;;;;5039995;28;20030;-70
2022/03/14 04:24:52;;;;;;;12.85;9.48;;;9.10;99.90;;;;;;5048677;28;20484;-70
2022/03/14 04:27:18;;;;;;;11.73;9.15;;;9.10;99.90;;;;;;5048733;28;20568;-70
2022/03/14 04:29:44;;;;;;;11.57;9.25;;;9.10;99.90;;;;;;5052566;28;20112;-70
2022/03/14 04:32:10;;;;;;;11.52;8.60;;;9.10;99.90;;;;;;5049547;28;20508;-70
2022/03/14 04:34:35;;;;;;;13.07;8.85;;;9.10;99.90;;;;;;5047345;28;20044;-70
2022/03/14 04:37:01;;;;;;;9.77;7.68;;;9.10;99.90;;;;;;5048037;28;20024;-70
2022/03/14 04:39:27;;;;;;;11.80;9.07;;;9.10;99.90;;;;;;5047732;28;20035;-70
2022/03/14 04:41:54;;;;;;;11.32;8.15;;;9.20;99.90;;;;;;5048682;28;20025;-70
2022/03/14 04:44:21;;;;;;;12.48;8.90;;;9.20;99.90;;;;;;5048109;28;20499;-70
2022/03/14 04:46:48;;;;;;;11.27;8.70;;;9.20;99.90;;;;;;5045366;28;20064;-70
2022/03/14 04:49:14;;;;;;;12.98;8.48;;;9.20;99.90;;;;;;5044956;28;20570;-70
2022/03/14 04:51:40;;;;;;;12.60;9.15;;;9.20;99.90;;;;;;5045133;28;20128;-70
2022/03/14 04:54:06;;;;;;;11.70;8.25;;;9.20;99.90;;;;;;5046092;28;20033;-70
2022/03/14 04:56:32;;;;;;;11.75;8.10;;;9.20;99.90;;;;;;5049500;28;20036;-69
2022/03/14 04:58:58;;;;;;;11.35;8.35;;;9.20;99.90;;;;;;5045173;28;20028;-69
2022/03/14 05:01:25;;;;;;;11.00;8.00;;;9.20;99.90;;;;;;5044682;28;20119;-69
2022/03/14 05:03:52;;;;;;;10.30;7.72;;;9.20;99.90;;;;;;5047187;28;20497;-69
2022/03/14 05:06:18;;;;;;;10.75;8.13;;;9.20;99.90;;;;;;5049179;28;20064;-69
2022/03/14 05:08:45;;;;;;;10.43;7.85;;;9.20;99.90;;;;;;5043729;28;20063;-70
2022/03/14 05:11:11;;;;;;;10.80;8.15;;;9.20;99.90;;;;;;5044502;28;20025;-70
2022/03/14 05:13:38;;;;;;;9.68;7.95;;;9.30;99.90;;;;;;5043321;28;20053;-69
2022/03/14 05:16:04;;;;;;;9.65;7.50;;;9.30;99.90;;;;;;5043560;28;20029;-69
2022/03/14 05:18:30;;;;;;;10.98;8.05;;;9.30;99.90;;;;;;5044961;28;20034;-70
2022/03/14 05:20:56;;;;;;;10.50;7.57;;;9.30;99.90;;;;;;5049867;28;20489;-70
2022/03/14 05:23:23;;;;;;;11.90;7.75;;;9.30;99.90;;;;;;5049134;28;20063;-70
2022/03/14 05:25:49;;;;;;;10.65;7.80;;;9.30;99.90;;;;;;5046942;28;20092;-70
2022/03/14 05:28:14;;;;;;;11.20;8.18;;;9.30;99.90;;;;;;5045976;28;20061;-70
2022/03/14 05:30:40;;;;;;;19.23;11.85;;;9.30;99.90;;;;;;5050586;28;20040;-70
2022/03/14 05:33:06;;;;;;;13.15;9.90;;;9.30;99.90;;;;;;5043035;28;20413;-70
2022/03/14 05:35:32;;;;;;;13.52;9.77;;;9.30;99.90;;;;;;5050733;28;20035;-70
2022/03/14 05:37:58;;;;;;;10.65;8.75;;;9.20;99.90;;;;;;5046130;28;20033;-70
2022/03/14 05:40:23;;;;;;;11.77;8.77;;;9.30;99.90;;;;;;5045393;28;20438;-70
2022/03/14 05:42:50;;;;;;;11.05;9.10;;;9.30;99.90;;;;;;5046162;28;20870;-71
2022/03/14 05:45:17;;;;;;;13.05;8.80;;;9.30;99.90;;;;;;5047095;28;20061;-71
2022/03/14 05:47:43;;;;;;;15.02;8.75;;;9.30;99.90;;;;;;5051099;28;21531;-71
2022/03/14 05:50:09;;;;;;;11.30;8.77;;;9.40;99.90;;;;;;5045767;28;20417;-71
2022/03/14 05:52:35;;;;;;;10.43;7.90;;;9.40;99.90;;;;;;5044584;28;20049;-71
2022/03/14 05:55:02;;;;;;;9.73;8.23;;;9.30;99.90;;;;;;5047855;28;20461;-70
2022/03/14 05:57:27;;;;;;;12.07;7.72;;;9.40;99.90;;;;;;5050760;28;20060;-70
2022/03/14 05:59:53;;;;;;;11.55;7.43;;;9.30;99.90;;;;;;5044411;28;20064;-70
2022/03/14 06:02:23;;;;;;;10.45;7.90;;;9.30;99.90;;;;;;5044299;28;20028;-71
2022/03/14 06:04:50;;;;;;;11.27;8.27;;;9.30;99.90;;;;;;5043835;28;20398;-70
2022/03/14 06:07:19;;;;;;;11.30;8.52;;;9.30;99.90;;;;;;5044883;28;20091;-72
2022/03/14 06:09:49;;;;;;;12.00;7.63;;;9.30;99.90;;;;;;5048719;28;20104;-73
2022/03/14 06:12:29;;;;;;;9.65;7.65;;;9.40;99.90;;;;;;5047572;28;20409;-73
2022/03/14 06:14:59;;;;;;;11.20;9.40;;;9.30;99.90;;;;;;5044219;28;20470;-73
2022/03/14 06:17:26;;;;;;;11.48;7.53;;;9.40;99.90;;;;;;5044089;28;20033;-72
2022/03/14 06:19:52;;;;;;;11.85;8.60;;;9.40;99.90;;;;;;5045422;28;20408;-74
2022/03/14 06:22:19;;;;;;;10.75;8.60;;;9.40;99.90;;;;;;5048827;28;20025;-73
2022/03/14 06:24:47;;;;;;;11.25;8.50;;;9.40;99.90;;;;;;5051466;28;20047;-74
2022/03/14 06:27:17;;;;;;;10.75;8.23;;;9.40;99.90;;;;;;5050600;28;20025;-75
2022/03/14 06:29:43;;;;;;;9.38;7.35;;;9.40;99.90;;;;;;5048304;28;20029;-73
2022/03/14 06:32:10;;;;;;;10.60;8.20;;;9.40;99.90;;;;;;5056532;28;20127;-71
2022/03/14 06:34:37;;;;;;;11.15;7.80;;;9.40;99.90;;;;;;5046525;28;20033;-70
2022/03/14 06:37:03;;;;;;;11.43;8.90;;;9.50;99.90;;;;;;5050710;28;20033;-70
2022/03/14 06:39:29;;;;;;;10.43;9.32;;;9.50;99.90;;;;;;5051875;28;20033;-70
2022/03/14 06:41:54;;;;;;;10.55;8.35;;;9.50;99.90;;;;;;5047578;28;20028;-70
2022/03/14 06:44:21;;;;;;;13.48;8.25;;;9.50;99.90;;;;;;5045517;28;20021;-70
2022/03/14 06:46:48;;;;;;;11.68;8.63;;;9.60;99.90;;;;;;5039412;28;20032;-71
2022/03/14 06:49:14;;;;;;;11.00;8.07;;;9.50;99.90;;;;;;5053584;28;20078;-73
2022/03/14 06:51:41;;;;;;;10.90;8.50;;;9.60;99.90;;;;;;5051040;28;20033;-71
2022/03/14 06:54:07;;;;;;;11.13;8.52;;;9.60;99.90;;;;;;5045442;28;20130;-72
2022/03/14 06:56:33;;;;;;;12.13;8.23;;;9.70;99.90;;;;;;5043621;28;20025;-71
2022/03/14 06:58:59;;;;;;;12.25;8.40;;;9.60;99.90;;;;;;5053086;28;20095;-77
2022/03/14 07:01:25;;;;;;;11.02;7.57;;;9.70;99.90;;;;;;5046402;28;20087;-64
2022/03/14 07:03:51;;;;;;;11.00;7.78;;;9.70;99.90;;;;;;5051404;28;20028;-65
2022/03/14 07:06:16;;;;;;;8.93;7.05;;;9.80;99.90;;;;;;5052223;28;20036;-64
2022/03/14 07:08:42;;;;;;;10.48;7.78;;;9.80;99.90;;;;;;5048425;28;20488;-64
2022/03/14 07:11:08;;;;;;;11.48;8.38;;;9.80;99.90;;;;;;5052173;28;20044;-65
2022/03/14 07:13:34;;;;;;;12.85;7.65;;;9.90;99.90;;;;;;5042599;28;20049;-65
2022/03/14 07:15:59;;;;;;;10.68;7.85;;;9.90;99.90;;;;;;5055937;28;20048;-64
2022/03/14 07:18:25;;;;;;;11.05;8.10;;;9.90;99.90;;;;;;5052578;28;20032;-64
2022/03/14 07:20:51;;;;;;;14.15;10.32;;;10.00;99.90;;;;;;5050622;28;20028;-64
2022/03/14 07:23:17;;;;;;;11.98;9.63;;;10.00;99.90;;;;;;5050845;28;20485;-64
2022/03/14 07:25:42;;;;;;;13.15;8.77;;;9.90;99.90;;;;;;5050982;28;20025;-65
2022/03/14 07:28:12;;;;;;;11.10;7.93;;;10.00;99.90;;;;;;5051594;28;20404;-64
2022/03/14 07:30:39;;;;;;;12.02;8.48;;;10.00;99.90;;;;;;5049214;28;20097;-66
2022/03/14 07:33:05;;;;;;;12.88;9.63;;;10.00;99.90;;;;;;5043031;28;20472;-65
2022/03/14 07:35:31;;;;;;;12.13;9.18;;;10.00;99.90;;;;;;5035185;28;20044;-66
2022/03/14 07:37:57;;;;;;;13.25;9.63;;;10.00;99.90;;;;;;5032584;28;20040;-65
2022/03/14 07:40:24;;;;;;;12.43;9.27;;;10.10;99.90;;;;;;5050188;28;20071;-66
2022/03/14 07:42:51;;;;;;;12.27;9.35;;;10.20;99.90;;;;;;5040211;28;20038;-66
2022/03/14 07:45:24;;;;;;;11.25;9.70;;;10.20;99.90;;;;;;5039216;28;20048;-68
2022/03/14 07:47:50;;;;;;;12.15;9.43;;;10.30;99.90;;;;;;5047121;28;20032;-69
2022/03/14 07:50:18;;;;;;;11.43;8.98;;;10.30;99.90;;;;;;5037054;28;20025;-65
2022/03/14 07:52:45;;;;;;;11.73;9.20;;;10.40;99.90;;;;;;5035460;28;20045;-66
2022/03/14 07:55:11;;;;;;;11.93;8.90;;;10.50;99.90;;;;;;5037296;28;20021;-66
2022/03/14 07:57:38;;;;;;;12.75;9.63;;;10.60;99.90;;;;;;5040516;28;20094;-66
2022/03/14 08:00:10;;;;;;;12.60;9.13;;;10.60;99.90;;;;;;5040475;28;20033;-66
2022/03/14 08:02:37;;;;;;;12.35;9.57;;;10.70;99.90;;;;;;5039320;28;20033;-70
2022/03/14 08:05:03;;;;;;;11.27;8.40;;;10.80;99.90;;;;;;5034042;28;20028;-70
2022/03/14 08:07:29;;;;;;;12.90;8.95;;;11.00;99.90;;;;;;5037738;28;20037;-70
2022/03/14 08:09:56;;;;;;;11.35;9.25;;;11.10;99.90;;;;;;5040631;28;20209;-71
2022/03/14 08:12:22;;;;;;;13.32;9.05;;;11.20;99.90;;;;;;5040950;28;20098;-71
2022/03/14 08:14:49;;;;;;;12.75;9.05;;;11.30;99.90;;;;;;5040452;28;20041;-71
2022/03/14 08:17:18;;;;;;;13.63;9.02;;;11.50;99.90;;;;;;5036571;28;20533;-71
2022/03/14 08:19:44;;;;;;;11.60;8.90;;;11.60;99.90;;;;;;5036284;28;20116;-71
2022/03/14 08:22:10;;;;;;;14.07;10.30;;;11.50;99.90;;;;;;5040400;28;20041;-71
2022/03/14 08:24:36;;;;;;;12.55;8.93;;;11.50;99.90;;;;;;5047799;28;20078;-71
2022/03/14 08:27:01;;;;;;;12.27;8.77;;;11.60;99.90;;;;;;5048688;28;20029;-71
2022/03/14 08:29:28;;;;;;;10.40;7.88;;;11.70;99.90;;;;;;5046664;28;20440;-71
2022/03/14 08:31:55;;;;;;;9.98;6.60;;;11.90;99.90;;;;;;5042783;28;20040;-71
2022/03/14 08:34:20;;;;;;;7.80;6.22;;;12.20;99.90;;;;;;5043877;28;20025;-71
2022/03/14 08:36:46;;;;;;;10.27;6.95;;;12.40;99.90;;;;;;5042721;28;20038;-71
2022/03/14 08:39:12;;;;;;;10.27;6.97;;;12.50;99.90;;;;;;5047121;28;20041;-71
2022/03/14 08:41:39;;;;;;;10.10;6.80;;;12.90;99.90;;;;;;5025570;28;20079;-71
2022/03/14 08:44:05;;;;;;;9.15;5.78;;;13.30;99.90;;;;;;5042823;28;20079;-71
2022/03/14 08:46:31;;;;;;;8.80;5.63;;;14.00;99.90;;;;;;5045867;28;20057;-71
2022/03/14 08:48:57;;;;;;;7.80;5.60;;;15.00;99.90;;;;;;5042042;28;20099;-72
2022/03/14 08:51:24;;;;;;;7.47;5.40;;;18.00;99.90;;;;;;5045728;28;20108;-72
2022/03/14 08:53:50;;;;;;;7.82;4.82;;;20.00;99.30;;;;;;5047127;28;20465;-72
2022/03/14 08:56:15;;;;;;;7.05;4.80;;;20.60;93.30;;;;;;5043016;28;20115;-72
2022/03/14 08:58:41;;;;;;;9.07;5.15;;;19.20;93.50;;;;;;5043148;28;20357;-72
2022/03/14 09:01:10;;;;;;;7.10;5.13;;;17.70;97.30;;;;;;5042288;28;20025;-72
2022/03/14 09:03:35;;;;;;;8.05;5.20;;;16.90;99.90;;;;;;5044343;28;20025;-72
2022/03/14 09:06:01;;;;;;;9.75;4.97;;;16.30;99.90;;;;;;5042541;28;20393;-71
2022/03/14 09:08:27;;;;;;;8.07;5.22;;;16.00;99.90;;;;;;5059802;28;20029;-71
2022/03/14 09:10:55;;;;;;;8.75;4.82;;;15.50;99.90;;;;;;5050650;28;20036;-72
2022/03/14 09:13:21;;;;;;;7.60;4.85;;;15.50;99.90;;;;;;5050769;28;20029;-71
2022/03/14 09:15:48;;;;;;;8.60;5.18;;;15.50;99.90;;;;;;5050656;28;20020;-72
2022/03/14 09:18:14;;;;;;;9.25;5.32;;;15.60;99.90;;;;;;5049919;28;20035;-72
2022/03/14 09:20:42;;;;;;;8.15;5.28;;;16.40;99.90;;;;;;5050340;28;20029;-71
2022/03/14 09:23:08;;;;;;;7.25;4.88;;;16.90;99.90;;;;;;5044987;28;20079;-71
2022/03/14 09:25:35;;;;;;;8.38;5.38;;;16.80;99.90;;;;;;5044707;28;20083;-72
2022/03/14 09:28:01;;;;;;;8.88;5.30;;;16.30;99.90;;;;;;5051327;28;20108;-71
2022/03/14 09:30:27;;;;;;;8.35;5.32;;;15.80;99.90;;;;;;5045798;28;20079;-69
2022/03/14 09:32:54;;;;;;;10.90;6.22;;;15.70;99.90;;;;;;5044430;28;20033;-69
2022/03/14 09:35:22;;;;;;;8.18;5.68;;;15.30;99.90;;;;;;5050350;28;20063;-69
2022/03/14 09:37:49;;;;;;;9.88;5.40;;;14.90;99.90;;;;;;5044938;28;20026;-69
2022/03/14 09:40:22;;;;;;;8.38;5.35;;;14.90;99.90;;;;;;5050966;28;20044;-69
2022/03/14 09:43:01;;;;;;;10.25;5.85;;;14.90;99.90;;;;;;5049803;28;20025;-69
2022/03/14 09:45:27;;;;;;;9.05;5.93;;;14.80;99.90;;;;;;5045430;28;20041;-69
2022/03/14 09:47:58;;;;;;;10.35;6.68;;;14.60;99.90;;;;;;5052738;28;20044;-69
2022/03/14 09:50:31;;;;;;;9.07;6.45;;;14.80;99.90;;;;;;5037152;28;20020;-69
2022/03/14 09:53:00;;;;;;;10.00;6.32;;;15.40;99.90;;;;;;5049948;28;20105;-69
2022/03/14 09:55:27;;;;;;;10.73;6.38;;;16.30;99.90;;;;;;5054209;28;20025;-69
2022/03/14 09:57:53;;;;;;;9.15;6.10;;;16.90;99.90;;;;;;5053379;28;20029;-70
2022/03/14 10:00:19;;;;;;;12.90;6.95;;;17.90;99.90;;;;;;5056800;28;20427;-70
2022/03/14 10:02:45;;;;;;;10.13;5.80;;;18.80;99.90;;;;;;5054303;28;20103;-70
2022/03/14 10:05:15;;;;;;;8.88;5.88;;;19.60;98.70;;;;;;5054067;28;20505;-70
2022/03/14 10:07:45;;;;;;;10.32;6.50;;;19.30;98.30;;;;;;5054460;28;20029;-70
2022/03/14 10:10:13;;;;;;;8.13;6.32;;;18.20;99.50;;;;;;5054548;28;20531;-70
2022/03/14 10:12:40;;;;;;;8.10;6.05;;;16.90;99.90;;;;;;5053259;28;20033;-70
2022/03/14 10:15:06;;;;;;;10.48;6.18;;;16.60;99.90;;;;;;5053562;28;20056;-70
2022/03/14 10:17:35;;;;;;;8.10;6.05;;;16.50;99.90;;;;;;5057008;28;20035;-70
2022/03/14 10:20:03;;;;;;;11.20;7.28;;;16.40;99.90;;;;;;5053419;28;20048;-70
2022/03/14 10:22:34;;;;;;;9.25;6.75;;;16.00;99.90;;;;;;5046499;28;20021;-70
2022/03/14 10:25:13;;;;;;;10.40;6.80;;;15.80;99.90;;;;;;5053643;28;20484;-70
2022/03/14 10:27:40;;;;;;;10.07;6.95;;;15.70;99.90;;;;;;5053613;28;20389;-69
2022/03/14 10:30:20;;;;;;;10.90;6.88;;;15.40;99.90;;;;;;5047099;28;20405;-72
2022/03/14 10:32:48;;;;;;;9.15;6.75;;;15.20;99.90;;;;;;5047576;28;20505;-72
2022/03/14 10:35:20;;;;;;;8.85;6.40;;;15.30;99.90;;;;;;5048571;28;20489;-72
2022/03/14 10:38:02;;;;;;;10.27;6.53;;;15.50;99.90;;;;;;5049925;28;20091;-66
2022/03/14 10:40:39;;;;;;;10.13;6.43;;;15.60;99.90;;;;;;5051046;28;20032;-67
2022/03/14 10:43:24;;;;;;;9.93;6.18;;;15.20;99.90;;;;;;5053692;28;20028;-66
2022/03/14 10:45:50;;;;;;;8.85;5.30;;;15.20;99.90;;;;;;5049221;28;20052;-66
2022/03/14 10:48:16;;;;;;;8.55;5.68;;;15.40;99.90;;;;;;5049076;28;20032;-66
2022/03/14 10:50:43;;;;;;;8.50;5.50;;;15.50;99.90;;;;;;5048959;28;20386;-65
2022/03/14 10:53:08;;;;;;;10.63;5.90;;;15.70;99.90;;;;;;5048725;28;20055;-65
2022/03/14 10:55:58;;;;;;;10.80;5.95;;;15.60;99.90;;;;;;5050140;28;20029;-65
2022/03/14 10:58:29;;;;;;;11.15;5.90;;;15.20;99.90;;;;;;5038083;28;20045;-65
2022/03/14 11:01:01;;;;;;;11.80;6.13;;;15.10;99.90;;;;;;5042543;28;20022;-66
2022/03/14 11:03:32;;;;;;;10.27;5.40;;;14.90;99.90;;;;;;5043679;28;20102;-71
2022/03/14 11:06:07;;;;;;;10.18;5.47;;;14.90;99.90;;;;;;5048982;28;20029;-70
2022/03/14 11:08:37;;;;;;;11.00;5.90;;;14.80;99.90;;;;;;5035128;28;20085;-70
2022/03/14 11:11:08;;;;;;;11.07;5.47;;;14.90;99.90;;;;;;5050180;28;20094;-71
2022/03/14 11:13:48;;;;;;;8.88;5.10;;;15.00;99.90;;;;;;5053254;28;20475;-70
2022/03/14 11:16:29;;;;;;;7.95;5.07;;;15.20;99.90;;;;;;5049374;28;20056;-67
2022/03/14 11:18:55;;;;;;;9.18;5.78;;;15.50;99.90;;;;;;5048269;28;20478;-71
2022/03/14 11:21:24;;;;;;;10.13;6.00;;;15.60;99.90;;;;;;5042433;28;20028;-69
2022/03/14 11:23:52;;;;;;;9.65;5.55;;;15.90;99.90;;;;;;5047946;28;20029;-67
2022/03/14 11:26:20;;;;;;;12.60;6.97;;;16.20;99.90;;;;;;5045888;28;20029;-67
2022/03/14 11:28:48;;;;;;;10.32;5.28;;;16.60;99.90;;;;;;5049280;28;20032;-68
2022/03/14 11:31:17;;;;;;;11.18;6.00;;;16.60;99.90;;;;;;5046518;28;20421;-66
2022/03/14 11:33:43;;;;;;;11.07;6.05;;;16.20;99.90;;;;;;5046375;28;20092;-66
2022/03/14 11:36:12;;;;;;;11.32;5.53;;;16.00;99.90;;;;;;5046398;28;20033;-66
2022/03/14 11:38:39;;;;;;;8.63;5.38;;;15.80;99.90;;;;;;5045515;28;20044;-66
2022/03/14 11:41:05;;;;;;;9.65;5.68;;;15.80;99.90;;;;;;5047412;28;20057;-66
2022/03/14 11:43:31;;;;;;;9.13;4.85;;;15.70;99.90;;;;;;5048058;28;20497;-66
2022/03/14 11:46:00;;;;;;;10.90;5.25;;;15.50;99.90;;;;;;5041824;28;20382;-67
2022/03/14 11:48:31;;;;;;;9.73;5.40;;;15.40;99.90;;;;;;5042057;28;20045;-66
2022/03/14 11:50:59;;;;;;;9.15;5.05;;;15.50;99.90;;;;;;5041897;28;20654;-66
2022/03/14 11:53:27;;;;;;;9.10;5.78;;;15.60;99.90;;;;;;5041325;28;20166;-66
2022/03/14 11:55:56;;;;;;;8.40;4.95;;;15.60;99.90;;;;;;5046982;28;20505;-66
2022/03/14 11:58:51;;;;;;;8.52;5.45;;;15.70;99.90;;;;;;5044201;28;20382;-66
2022/03/14 12:01:29;;;;;;;8.10;5.13;;;15.50;99.90;;;;;;5049267;28;20029;-66
2022/03/14 12:04:02;;;;;;;7.63;4.50;;;15.40;99.90;;;;;;5045856;28;20055;-66
2022/03/14 12:06:46;;;;;;;9.27;5.22;;;15.50;99.90;;;;;;5047498;28;20123;-66
2022/03/14 12:09:35;;;;;;;;;;;15.60;99.90;;;;;;5043908;28;20037;-66
2022/03/14 12:12:22;;;;;;;12.85;5.47;;;15.60;99.90;;;;;;5030992;28;19921;-66
2022/03/14 12:14:54;;;;;;;11.43;5.60;;;15.40;99.90;;;;;;5038657;28;20063;-66
2022/03/14 12:17:23;;;;;;;7.70;5.43;;;15.40;99.90;;;;;;5045684;28;20104;-66
2022/03/14 12:19:57;;;;;;;8.05;4.90;;;15.30;99.90;;;;;;5048381;28;20021;-66
2022/03/14 12:22:39;;;;;;;;;;;15.40;99.90;;;;;;5048324;28;20037;-66
2022/03/14 12:25:07;;;;;;;9.07;5.65;;;15.30;99.90;;;;;;5054856;28;19912;-66
2022/03/14 12:27:41;;;;;;;9.30;4.90;;;15.30;99.90;;;;;;5042438;28;20036;-66
2022/03/14 12:30:16;;;;;;;8.13;4.85;;;15.20;99.90;;;;;;5044823;28;20497;-66
2022/03/14 12:32:45;;;;;;;10.45;5.05;;;15.10;99.90;;;;;;5044931;28;20458;-66
2022/03/14 12:35:16;;;;;;;8.25;4.55;;;15.10;99.90;;;;;;5046239;28;20529;-66
2022/03/14 12:38:10;;;;;;;8.02;4.63;;;15.10;99.90;;;;;;5048535;28;20025;-66
2022/03/14 12:40:36;;;;;;;10.77;5.47;;;15.00;99.90;;;;;;5045831;28;20124;-66
2022/03/14 12:43:07;;;;;;;8.95;4.97;;;15.00;99.90;;;;;;5047385;28;20116;-66
2022/03/14 12:45:47;;;;;;;11.98;5.90;;;14.90;99.90;;;;;;5042721;28;20119;-66